Time;durP1;ratioP1;P1;durP2;ratioP2;P2;SDS_P1;SDS_P2;PMS_P1;PMS_P2;Temp;Humidity;BMP_temperature;BMP_pressure;BME280_temperature;BME280_humidity;BME280_pressure;Samples;Min_cycle;Max_cycle;Signal;HPM_P1;HPM_P2
2021/12/04 00:02:01;;;;;;;0.63;0.63;;;;;;;-6.24;82.94;97291.16;6351706;27;20208;-68
2021/12/04 00:05:05;;;;;;;1.00;0.70;;;;;;;-6.24;82.73;97286.88;6370191;27;20196;-68
2021/12/04 00:08:07;;;;;;;2.77;1.53;;;;;;;-6.28;83.08;97285.22;6381610;27;20195;-69
2021/12/04 00:11:10;;;;;;;1.30;0.90;;;;;;;-6.31;82.64;97269.91;6372532;27;20216;-67
2021/12/04 00:14:12;;;;;;;0.80;0.77;;;;;;;-6.30;82.49;97276.75;6368898;27;20252;-67
2021/12/04 00:17:14;;;;;;;0.77;0.60;;;;;;;-6.31;82.77;97269.91;6360501;27;20276;-67
2021/12/04 00:20:16;;;;;;;0.80;0.70;;;;;;;-6.32;82.50;97259.66;6369963;27;20285;-66
2021/12/04 00:23:18;;;;;;;0.97;0.70;;;;;;;-6.34;82.98;97264.84;6351318;27;20192;-68
2021/12/04 00:26:20;;;;;;;1.33;0.60;;;;;;;-6.37;82.75;97262.31;6351663;27;20940;-67
2021/12/04 00:29:23;;;;;;;1.00;0.70;;;;;;;-6.41;82.70;97246.16;6369639;27;20216;-67
2021/12/04 00:32:34;;;;;;;0.60;0.60;;;;;;;-6.41;82.34;97237.59;6369592;27;20216;-67
2021/12/04 00:36:27;;;;;;;1.03;0.80;;;;;;;-6.45;82.69;97231.69;6369800;27;20594;-67
2021/12/04 00:52:12;;;;;;;0.87;0.70;;;;;;;-6.51;82.18;97225.84;6369481;27;20665;-67
2021/12/04 00:55:14;;;;;;;0.70;0.70;;;;;;;-6.47;82.21;97220.59;6368484;27;20189;-67
2021/12/04 00:58:16;;;;;;;1.50;0.67;;;;;;;-6.44;82.21;97219.69;6350875;27;20192;-67
2021/12/04 01:01:19;;;;;;;1.70;0.87;;;;;;;-6.40;82.24;97214.47;6368765;27;20215;-67
2021/12/04 01:04:23;;;;;;;1.10;0.80;;;;;;;-6.36;82.48;97207.53;6351323;27;20211;-67
2021/12/04 01:07:25;;;;;;;1.53;0.70;;;;;;;-6.31;81.53;97210.03;6369244;27;20192;-67
2021/12/04 01:10:27;;;;;;;0.80;0.73;;;;;;;-6.25;81.85;97195.31;6368850;27;20215;-67
2021/12/04 01:13:31;;;;;;;1.53;0.60;;;;;;;-6.25;82.26;97187.63;6368508;27;20239;-67
2021/12/04 01:16:33;;;;;;;1.10;0.87;;;;;;;-6.22;82.19;97185.00;6369150;27;20253;-68
2021/12/04 01:19:39;;;;;;;1.00;0.77;;;;;;;-6.22;81.83;97187.56;6368691;28;20195;-67
2021/12/04 01:22:41;;;;;;;0.50;0.50;;;;;;;-6.21;82.03;97186.69;6368593;28;20571;-67
2021/12/04 01:25:45;;;;;;;0.80;0.63;;;;;;;-6.21;82.61;97181.56;6350140;28;20233;-67
2021/12/04 01:28:47;;;;;;;0.50;0.50;;;;;;;-6.23;82.19;97177.31;6369541;28;20230;-67
2021/12/04 01:31:50;;;;;;;0.87;0.60;;;;;;;-6.26;82.03;97179.94;6368164;28;20192;-67
2021/12/04 01:34:54;;;;;;;1.50;0.50;;;;;;;-6.28;82.77;97162.00;6350840;28;20184;-67
2021/12/04 01:37:56;;;;;;;0.60;0.60;;;;;;;-6.30;82.48;97157.81;6360274;27;20276;-67
2021/12/04 01:40:58;;;;;;;0.70;0.60;;;;;;;-6.34;82.97;97147.59;6368584;27;20221;-67
2021/12/04 01:44:03;;;;;;;0.60;0.60;;;;;;;-6.38;82.51;97143.41;6368638;28;20205;-67
2021/12/04 01:47:19;;;;;;;0.40;0.40;;;;;;;-6.40;82.40;97142.63;6350219;28;20212;-66
2021/12/04 01:50:22;;;;;;;0.73;0.60;;;;;;;-6.43;82.80;97134.13;6368634;28;20193;-67
2021/12/04 01:53:25;;;;;;;0.77;0.60;;;;;;;-6.49;82.60;97129.13;6367920;28;20196;-67
2021/12/04 01:56:33;;;;;;;0.70;0.60;;;;;;;-6.53;82.32;97117.25;6369251;28;20185;-67
2021/12/04 01:59:36;;;;;;;0.83;0.60;;;;;;;-6.58;82.32;97119.06;6350206;28;20197;-67
2021/12/04 02:02:39;;;;;;;0.80;0.57;;;;;;;-6.58;82.83;97113.91;6349872;28;20219;-67
2021/12/04 02:05:42;;;;;;;0.83;0.70;;;;;;;-6.63;83.00;97087.53;6350978;27;20235;-67
2021/12/04 02:08:44;;;;;;;0.70;0.70;;;;;;;-6.64;82.11;97099.53;6389553;27;20187;-67
2021/12/04 02:11:46;;;;;;;2.23;0.63;;;;;;;-6.66;82.83;97087.59;6375885;27;20223;-67
2021/12/04 02:14:48;;;;;;;1.10;0.60;;;;;;;-6.67;82.48;97085.91;6354928;27;20219;-67
2021/12/04 02:17:50;;;;;;;0.83;0.60;;;;;;;-6.68;82.08;97089.34;6373185;27;20196;-67
2021/12/04 02:20:52;;;;;;;0.60;0.60;;;;;;;-6.68;82.11;97092.75;6372522;27;20192;-67
2021/12/04 02:23:55;;;;;;;1.17;0.97;;;;;;;-6.67;81.87;97083.34;6372696;27;20189;-70
2021/12/04 02:26:57;;;;;;;1.33;0.97;;;;;;;-6.68;82.37;97073.94;6354635;27;20296;-67
2021/12/04 02:29:59;;;;;;;2.23;1.67;;;;;;;-6.66;81.71;97072.19;6354237;27;20196;-67
2021/12/04 02:33:11;;;;;;;2.87;1.90;;;;;;;-6.65;82.27;97063.63;6372555;27;20185;-67
2021/12/04 02:36:13;;;;;;;1.73;1.10;;;;;;;-6.62;81.73;97053.31;6354569;27;20245;-66
2021/12/04 02:39:31;;;;;;;1.53;1.00;;;;;;;-6.58;82.38;97049.78;6372672;27;20198;-67
2021/12/04 02:42:33;;;;;;;1.10;0.93;;;;;;;-6.55;81.48;97048.00;6339455;28;20228;-66
2021/12/04 02:45:36;;;;;;;1.10;0.80;;;;;;;-6.45;81.98;97053.75;6362696;27;20205;-67
2021/12/04 02:48:38;;;;;;;2.37;1.27;;;;;;;-6.43;81.67;97041.72;6372528;27;20199;-67
2021/12/04 02:51:40;;;;;;;1.77;1.00;;;;;;;-6.38;81.54;97035.59;6353562;27;20273;-67
2021/12/04 02:54:43;;;;;;;2.37;1.10;;;;;;;-6.35;81.84;97025.25;6353614;27;20196;-67
2021/12/04 02:57:45;;;;;;;2.20;1.20;;;;;;;-6.28;81.33;97022.53;6372366;27;20192;-67
2021/12/04 03:00:49;;;;;;;1.07;0.90;;;;;;;-6.22;81.81;97025.81;6371916;27;20321;-66
2021/12/04 03:03:52;;;;;;;1.63;1.30;;;;;;;-6.17;82.28;97025.69;6353832;27;20193;-66
2021/12/04 03:06:55;;;;;;;1.17;1.03;;;;;;;-6.11;81.90;97025.53;6372291;27;20291;-66
2021/12/04 03:09:57;;;;;;;1.77;1.07;;;;;;;-6.06;82.24;97018.56;6361755;27;20291;-67
2021/12/04 03:12:59;;;;;;;1.13;0.80;;;;;;;-6.02;81.38;97020.19;6371412;27;20312;-67
2021/12/04 03:16:01;;;;;;;3.10;1.20;;;;;;;-5.99;82.10;97017.53;6371750;27;20233;-67
2021/12/04 03:19:05;;;;;;;2.70;1.37;;;;;;;-5.93;81.74;96999.38;6353030;27;20660;-67
2021/12/04 03:22:08;;;;;;;1.50;1.13;;;;;;;-5.90;81.70;96999.31;6370965;27;20192;-67
2021/12/04 03:25:11;;;;;;;1.97;1.60;;;;;;;-5.88;81.67;96989.81;6371259;27;20376;-67
2021/12/04 03:28:19;;;;;;;2.97;1.53;;;;;;;-5.81;81.48;96990.47;6371894;27;20169;-67
2021/12/04 03:41:12;;;;;;;1.40;1.27;;;;;;;-5.72;81.46;96931.97;6376284;27;20200;-67
2021/12/04 03:44:14;;;;;;;1.67;1.47;;;;;;;-5.72;81.69;96920.84;6351914;27;20201;-67
2021/12/04 03:47:19;;;;;;;1.93;1.17;;;;;;;-5.74;81.88;96920.06;6370970;27;20212;-67
2021/12/04 03:50:20;;;;;;;1.47;1.37;;;;;;;-5.75;82.40;96913.22;6352380;27;20209;-66
2021/12/04 03:53:23;;;;;;;2.00;1.50;;;;;;;-5.78;82.38;96924.41;6370148;27;20196;-67
2021/12/04 03:56:25;;;;;;;2.03;1.60;;;;;;;-5.83;82.45;96921.16;6352461;27;20301;-67
2021/12/04 03:59:27;;;;;;;1.67;1.30;;;;;;;-5.82;82.16;96906.59;6370698;27;20203;-67
2021/12/04 04:02:29;;;;;;;1.73;1.30;;;;;;;-5.87;82.07;96905.84;6352361;27;20189;-67
2021/12/04 04:05:31;;;;;;;1.30;1.20;;;;;;;-5.91;82.11;96900.00;6334781;27;20204;-67
2021/12/04 04:08:33;;;;;;;1.33;0.97;;;;;;;-5.92;81.66;96889.78;6367087;27;20196;-67
2021/12/04 04:11:36;;;;;;;0.90;0.70;;;;;;;-5.98;81.75;96883.06;6382037;27;20219;-69
2021/12/04 04:14:38;;;;;;;0.70;0.60;;;;;;;-6.04;81.88;96878.97;6370213;27;20188;-67
2021/12/04 04:17:42;;;;;;;0.97;0.50;;;;;;;-6.08;81.71;96871.38;6352158;27;20220;-71
2021/12/04 04:20:45;;;;;;;1.00;0.80;;;;;;;-6.12;81.51;96867.22;6369976;27;20231;-68
2021/12/04 04:23:47;;;;;;;0.80;0.80;;;;;;;-6.15;82.02;96857.03;6370433;27;20192;-69
2021/12/04 04:26:49;;;;;;;1.23;0.70;;;;;;;-6.17;82.29;96841.66;6370047;27;20220;-65
2021/12/04 04:29:52;;;;;;;2.07;0.90;;;;;;;-6.16;81.79;96833.06;6350822;27;20200;-66
2021/12/04 04:32:54;;;;;;;0.73;0.50;;;;;;;-6.16;82.03;96824.53;6369612;27;20196;-67
2021/12/04 04:36:08;;;;;;;0.57;0.57;;;;;;;-6.17;81.22;96825.41;6369198;27;20219;-69
2021/12/04 05:13:08;;;;;;;0.40;0.40;;;;;;;-5.80;81.02;96809.75;6276460;28;20371;-69
2021/12/04 05:22:36;;;;;;;3.90;1.87;;;;;;;-5.52;80.58;96792.63;6318359;28;20263;-68
2021/12/04 05:25:38;;;;;;;1.80;1.00;;;;;;;-5.47;80.35;96775.31;6317833;28;20202;-69
2021/12/04 05:28:40;;;;;;;1.87;1.00;;;;;;;-5.39;79.91;96770.75;6318491;28;20197;-67
2021/12/04 05:31:42;;;;;;;0.70;0.60;;;;;;;-5.31;80.20;96755.09;6318098;28;20286;-67
2021/12/04 05:34:44;;;;;;;0.60;0.60;;;;;;;-5.22;79.70;96753.06;6318112;28;20221;-70
2021/12/04 05:37:47;;;;;;;1.17;0.70;;;;;;;-5.15;79.04;96751.13;6326085;28;20272;-68
2021/12/04 05:40:49;;;;;;;2.33;0.77;;;;;;;-5.05;79.01;96746.50;6333390;28;20202;-69
2021/12/04 05:43:51;;;;;;;0.83;0.50;;;;;;;-4.97;78.84;96747.06;6338854;28;20202;-68
2021/12/04 05:47:20;;;;;;;0.83;0.60;;;;;;;-4.91;79.05;96742.59;6323358;28;20228;-68
2021/12/04 05:50:33;;;;;;;0.83;0.60;;;;;;;-4.85;78.49;96738.94;6322867;28;20534;-70
2021/12/04 05:53:56;;;;;;;1.00;0.63;;;;;;;-4.78;78.43;96731.84;6323209;28;20178;-67
2021/12/04 05:56:59;;;;;;;1.33;0.70;;;;;;;-4.71;77.72;96726.44;6321700;28;20197;-67
2021/12/04 06:00:05;;;;;;;0.73;0.70;;;;;;;-4.67;77.45;96725.44;6322967;28;20268;-67
2021/12/04 06:03:07;;;;;;;1.03;0.87;;;;;;;-4.64;78.11;96722.75;6322834;28;20190;-67
2021/12/04 06:06:11;;;;;;;0.93;0.70;;;;;;;-4.57;77.98;96728.50;6322527;28;20210;-67
2021/12/04 06:09:13;;;;;;;0.80;0.60;;;;;;;-4.54;78.07;96720.69;6324942;28;20182;-67
2021/12/04 06:12:15;;;;;;;1.20;1.00;;;;;;;-4.50;78.54;96714.53;6332424;27;20243;-67
2021/12/04 06:15:17;;;;;;;1.40;0.90;;;;;;;-4.44;78.38;96721.19;6372826;27;20197;-67
2021/12/04 06:18:21;;;;;;;1.03;0.83;;;;;;;-4.38;78.43;96710.66;6373479;27;20196;-68
2021/12/04 06:24:45;;;;;;;1.07;0.97;;;;;;;-4.24;77.81;96693.81;6372787;27;20652;-68
2021/12/04 06:27:47;;;;;;;0.83;0.73;;;;;;;-4.19;77.34;96691.88;6372932;27;20823;-68
2021/12/04 06:30:52;;;;;;;0.80;0.80;;;;;;;-4.14;77.59;96694.28;6372704;27;20205;-67
2021/12/04 06:33:59;;;;;;;0.93;0.73;;;;;;;-4.09;77.44;96687.22;6354233;27;20200;-67
2021/12/04 06:37:01;;;;;;;2.30;0.93;;;;;;;-4.04;76.98;96693.03;6374485;27;20763;-69
2021/12/04 06:40:05;;;;;;;1.63;0.90;;;;;;;-3.99;77.50;96688.53;6364317;27;20216;-68
2021/12/04 06:43:08;;;;;;;2.30;0.90;;;;;;;-3.92;77.53;96676.28;6372559;27;20192;-68
2021/12/04 06:46:10;;;;;;;2.80;0.90;;;;;;;-3.87;76.97;96680.34;6372024;27;20357;-67
2021/12/04 06:49:20;;;;;;;1.07;0.97;;;;;;;-3.82;76.50;96677.59;6372316;27;20192;-67
2021/12/04 06:52:25;;;;;;;1.13;0.90;;;;;;;-3.77;76.29;96684.22;6353915;27;20200;-67
2021/12/04 06:55:31;;;;;;;0.83;0.80;;;;;;;-3.69;76.28;96672.78;6371990;27;20181;-67
2021/12/04 06:58:35;;;;;;;1.33;0.90;;;;;;;-3.66;77.15;96645.13;6354062;27;20178;-67
2021/12/04 07:01:39;;;;;;;3.30;1.17;;;;;;;-3.60;76.52;96638.91;6352882;27;20208;-67
2021/12/04 07:04:42;;;;;;;0.60;0.60;;;;;;;-3.55;76.61;96642.09;6371424;27;20184;-69
2021/12/04 07:07:43;;;;;;;1.00;0.90;;;;;;;-3.50;76.95;96637.63;6379540;27;20268;-67
2021/12/04 07:10:46;;;;;;;1.90;0.97;;;;;;;-3.43;76.45;96639.88;6383826;27;20262;-67
2021/12/04 07:13:48;;;;;;;1.20;0.90;;;;;;;-3.35;76.81;96660.16;6371076;27;20312;-67
2021/12/04 07:16:49;;;;;;;1.30;0.80;;;;;;;-3.28;76.61;96659.00;6371427;27;20265;-68
2021/12/04 07:19:51;;;;;;;1.07;0.67;;;;;;;-3.20;76.68;96659.53;6352644;27;20266;-67
2021/12/04 07:22:54;;;;;;;1.30;0.60;;;;;;;-3.16;75.89;96650.75;6371065;27;20192;-68
2021/12/04 07:25:56;;;;;;;2.87;0.93;;;;;;;-3.10;75.71;96639.34;6371434;27;20212;-70
2021/12/04 07:28:58;;;;;;;0.77;0.73;;;;;;;-3.03;75.50;96640.75;6371228;27;20272;-67
2021/12/04 07:32:00;;;;;;;1.30;0.60;;;;;;;-2.98;75.52;96642.22;6352744;27;20711;-68
2021/12/04 07:35:03;;;;;;;0.63;0.57;;;;;;;-2.89;74.73;96627.22;6352457;27;20192;-67
2021/12/04 07:38:05;;;;;;;1.47;0.70;;;;;;;-2.82;74.83;96634.66;6362972;27;20196;-67
2021/12/04 07:41:08;;;;;;;1.97;0.80;;;;;;;-2.70;74.04;96630.69;6382017;27;20192;-66
2021/12/04 07:44:11;;;;;;;1.37;0.97;;;;;;;-2.62;74.21;96628.59;6348626;27;20196;-66
2021/12/04 07:47:13;;;;;;;1.13;0.97;;;;;;;-2.56;74.68;96619.72;6327568;27;20225;-67
2021/12/04 07:50:15;;;;;;;1.13;0.90;;;;;;;-2.50;74.57;96622.88;6370487;27;20647;-66
2021/12/04 07:53:18;;;;;;;0.90;0.70;;;;;;;-2.43;74.37;96633.75;6370315;27;20195;-66
2021/12/04 07:56:20;;;;;;;1.10;0.80;;;;;;;-2.40;74.72;96618.97;6351925;27;20188;-67
2021/12/04 07:59:23;;;;;;;1.00;0.77;;;;;;;-2.33;74.82;96617.78;6370468;27;20276;-66
2021/12/04 08:02:25;;;;;;;1.40;0.80;;;;;;;-2.26;74.61;96624.31;6370014;27;20188;-66
2021/12/04 08:05:29;;;;;;;0.80;0.70;;;;;;;-2.19;74.47;96624.88;6350291;27;20694;-67
2021/12/04 08:08:31;;;;;;;1.90;0.80;;;;;;;-2.11;74.61;96616.78;6377927;27;20227;-66
2021/12/04 08:11:33;;;;;;;0.77;0.77;;;;;;;-2.04;74.42;96612.97;6369606;27;20211;-66
2021/12/04 08:14:37;;;;;;;0.60;0.60;;;;;;;-1.96;74.09;96601.34;6370020;27;20261;-66
2021/12/04 08:17:43;;;;;;;1.13;0.73;;;;;;;-1.87;73.37;96600.06;6350834;27;20295;-66
2021/12/04 08:20:45;;;;;;;1.07;0.80;;;;;;;-1.77;73.16;96616.81;6369863;27;20192;-67
2021/12/04 08:23:48;;;;;;;0.97;0.80;;;;;;;-1.65;73.50;96610.22;6369881;27;20188;-68
2021/12/04 08:26:50;;;;;;;0.70;0.70;;;;;;;-1.51;73.07;96612.97;6350846;27;20284;-67
2021/12/04 08:29:52;;;;;;;0.77;0.70;;;;;;;-1.41;73.27;96618.53;6351446;27;20224;-66
2021/12/04 08:32:56;;;;;;;1.30;1.10;;;;;;;-1.28;72.95;96611.78;6369116;27;20189;-66
2021/12/04 08:36:00;;;;;;;0.80;0.80;;;;;;;-1.19;71.83;96603.56;6369844;27;20220;-66
2021/12/04 08:39:05;;;;;;;0.53;0.53;;;;;;;-1.09;71.38;96601.34;6386716;27;20192;-67
2021/12/04 08:42:07;;;;;;;1.83;1.07;;;;;;;-1.02;70.85;96598.38;6369484;27;20301;-66
2021/12/04 08:45:11;;;;;;;1.50;0.80;;;;;;;-0.92;70.84;96607.34;6368855;27;20279;-67
2021/12/04 08:48:13;;;;;;;0.87;0.80;;;;;;;-0.81;70.67;96605.03;6369132;27;20215;-66
2021/12/04 08:51:17;;;;;;;1.10;0.70;;;;;;;-0.70;70.73;96601.03;6368916;27;20261;-67
2021/12/04 08:54:19;;;;;;;0.57;0.40;;;;;;;-0.60;70.74;96605.63;6368893;27;20188;-66
2021/12/04 08:57:21;;;;;;;2.23;0.63;;;;;;;-0.52;70.86;96594.88;6350295;27;20341;-65
2021/12/04 09:00:40;;;;;;;2.00;0.80;;;;;;;-0.44;71.30;96587.50;6369054;27;20196;-66
2021/12/04 09:03:46;;;;;;;1.53;0.70;;;;;;;-0.36;71.10;96590.50;6350707;27;20193;-67
2021/12/04 09:06:49;;;;;;;1.10;0.70;;;;;;;-0.31;70.67;96572.97;6350374;27;20201;-67
2021/12/04 09:09:55;;;;;;;0.70;0.60;;;;;;;-0.22;70.83;96567.28;6343533;28;20205;-66
2021/12/04 09:12:58;;;;;;;1.00;0.80;;;;;;;-0.14;69.53;96561.66;6343233;28;20229;-67
2021/12/04 09:16:01;;;;;;;0.40;0.40;;;;;;;-0.04;69.61;96562.81;6365230;27;20287;-66
2021/12/04 09:19:03;;;;;;;1.37;1.00;;;;;;;0.11;69.42;96567.13;6350028;27;20200;-66
2021/12/04 09:22:10;;;;;;;1.30;0.77;;;;;;;0.23;68.37;96563.00;6350340;28;20237;-66
2021/12/04 09:25:34;;;;;;;0.97;0.70;;;;;;;0.27;68.64;96562.75;6353109;28;20223;-66
2021/12/04 10:05:20;;;;;;;4.13;2.47;;;;;;;1.12;68.06;96507.47;6342895;28;20174;-67
2021/12/04 10:35:22;;;;;;;8.73;4.30;;;;;;;2.15;65.06;96453.16;6372386;27;20196;-68
2021/12/04 10:38:28;;;;;;;7.13;4.30;;;;;;;2.22;64.03;96451.81;6385548;27;20180;-67
2021/12/04 10:41:43;;;;;;;5.90;3.77;;;;;;;2.22;62.29;96446.63;6361624;27;20199;-67
2021/12/04 10:44:51;;;;;;;3.90;3.07;;;;;;;2.19;61.25;96441.63;6354145;27;20185;-67
2021/12/04 10:47:58;;;;;;;5.97;3.60;;;;;;;2.15;61.15;96434.97;6371651;27;20211;-67
2021/12/04 10:51:20;;;;;;;6.73;3.90;;;;;;;2.13;60.51;96440.25;6353522;27;20626;-69
2021/12/04 10:54:28;;;;;;;5.77;4.10;;;;;;;2.14;60.23;96441.94;6372268;27;20544;-68
2021/12/04 10:57:59;;;;;;;6.10;3.70;;;;;;;2.11;59.43;96457.72;6353468;27;20181;-68
2021/12/04 11:04:40;;;;;;;5.63;3.60;;;;;;;2.14;59.77;96457.53;6371944;27;20185;-67
2021/12/04 11:18:37;;;;;;;4.77;3.60;;;;;;;2.18;59.88;96452.97;6374124;27;20296;-67
2021/12/04 11:44:26;;;;;;;6.83;3.80;;;;;;;2.66;57.74;96394.13;6370950;27;20602;-68
2021/12/04 11:47:39;;;;;;;4.33;3.27;;;;;;;2.61;57.95;96388.41;6352175;27;20278;-68
2021/12/04 11:50:51;;;;;;;6.43;2.97;;;;;;;2.63;57.25;96389.13;6351922;27;20273;-69
2021/12/04 11:53:54;;;;;;;4.20;3.20;;;;;;;2.78;57.10;96392.44;6370483;27;20204;-68
2021/12/04 11:57:08;;;;;;;5.50;3.37;;;;;;;3.01;56.51;96390.81;6370215;27;20562;-68
2021/12/04 12:00:24;;;;;;;3.00;2.53;;;;;;;3.21;56.21;96390.22;6351646;27;20568;-68
2021/12/04 12:03:30;;;;;;;4.13;3.17;;;;;;;3.37;56.38;96382.97;6369852;27;20208;-69
2021/12/04 12:06:33;;;;;;;3.40;2.60;;;;;;;3.55;56.40;96371.22;6369848;27;20273;-67
2021/12/04 12:09:37;;;;;;;5.30;3.00;;;;;;;3.53;55.98;96361.81;6371305;27;20216;-68
2021/12/04 12:12:43;;;;;;;4.10;3.17;;;;;;;3.61;55.13;96355.09;6369633;27;20248;-68
2021/12/04 12:15:58;;;;;;;5.57;3.60;;;;;;;3.50;55.46;96346.38;6369668;27;20173;-68
2021/12/04 12:19:09;;;;;;;4.53;3.17;;;;;;;3.45;55.76;96349.34;6369914;27;20208;-68
2021/12/04 12:22:30;;;;;;;4.83;3.50;;;;;;;3.34;56.58;96346.69;6351036;27;20250;-69
2021/12/04 12:32:50;;;;;;;6.40;3.67;;;;;;;3.15;57.18;96349.81;6370054;27;20193;-67
2021/12/04 12:36:05;;;;;;;7.17;3.63;;;;;;;3.08;57.39;96345.16;6369424;27;20214;-68
2021/12/04 12:39:08;;;;;;;4.67;3.13;;;;;;;3.00;57.72;96332.66;6388984;27;20559;-68
2021/12/04 12:42:10;;;;;;;3.40;2.97;;;;;;;2.94;57.62;96322.69;6371504;27;20180;-68
2021/12/04 12:45:34;;;;;;;3.87;2.90;;;;;;;3.00;58.32;96305.75;6368886;27;20203;-68
2021/12/04 12:48:45;;;;;;;5.07;3.70;;;;;;;2.96;58.61;96305.16;6350647;27;20220;-67
2021/12/04 12:51:58;;;;;;;4.93;3.40;;;;;;;2.87;59.06;96298.84;6350149;27;20199;-69
2021/12/04 12:55:10;;;;;;;5.70;3.20;;;;;;;2.85;59.86;96307.69;6368939;27;20314;-69
2021/12/04 12:58:25;;;;;;;4.37;3.13;;;;;;;2.80;60.00;96305.41;6351019;27;20190;-68
2021/12/04 13:12:09;;;;;;;3.77;2.40;;;;;;;2.75;61.02;96280.66;6368405;27;20581;-68
2021/12/04 13:15:12;;;;;;;3.73;2.53;;;;;;;2.73;62.02;96285.97;6368366;27;20200;-67
2021/12/04 13:18:21;;;;;;;2.70;2.27;;;;;;;2.70;62.09;96285.34;6369159;27;20271;-70
2021/12/04 13:21:27;;;;;;;3.40;2.30;;;;;;;2.72;62.36;96296.47;6349672;28;20199;-68
2021/12/04 13:24:33;;;;;;;3.33;2.20;;;;;;;2.72;62.63;96289.50;6368762;28;20192;-69
2021/12/04 13:30:44;;;;;;;2.73;2.40;;;;;;;2.70;62.94;96285.34;6369293;28;20197;-68
2021/12/04 13:33:50;;;;;;;3.77;2.80;;;;;;;2.62;63.64;96287.66;6332714;28;20200;-70
2021/12/04 13:36:53;;;;;;;4.70;2.80;;;;;;;2.51;64.21;96289.25;6368663;27;20186;-68
2021/12/04 13:39:57;;;;;;;3.90;2.50;;;;;;;2.48;64.40;96288.66;6384946;27;20181;-68
2021/12/04 13:42:59;;;;;;;2.53;2.00;;;;;;;2.47;64.97;96281.78;6367963;28;20704;-68
2021/12/04 13:46:04;;;;;;;3.67;2.50;;;;;;;2.49;65.20;96272.94;6368239;28;20560;-69
2021/12/04 13:49:06;;;;;;;3.57;2.30;;;;;;;2.47;65.95;96266.16;6368406;28;20218;-68
2021/12/04 13:52:13;;;;;;;2.53;2.20;;;;;;;2.44;66.25;96266.38;6367909;28;20300;-68
2021/12/04 13:55:17;;;;;;;4.17;2.50;;;;;;;2.44;66.40;96277.63;6367896;28;20196;-69
2021/12/04 13:58:20;;;;;;;2.93;2.30;;;;;;;2.39;66.42;96271.09;6368240;28;20616;-70
2021/12/04 14:01:24;;;;;;;3.10;2.53;;;;;;;2.33;67.44;96271.50;6368186;27;20574;-70
2021/12/04 14:04:26;;;;;;;2.63;2.40;;;;;;;2.22;68.17;96267.03;6354793;27;20236;-67
2021/12/04 14:07:29;;;;;;;3.43;2.30;;;;;;;2.16;68.79;96265.72;6378469;27;20209;-71
2021/12/04 14:10:40;;;;;;;4.30;2.80;;;;;;;2.11;69.60;96267.78;6393713;27;20674;-68
2021/12/04 14:13:42;;;;;;;4.43;2.73;;;;;;;2.07;69.25;96270.72;6372336;27;20565;-69
2021/12/04 14:16:46;;;;;;;4.43;2.10;;;;;;;2.02;69.64;96268.41;6372898;27;20201;-67
2021/12/04 14:19:48;;;;;;;4.83;2.47;;;;;;;1.99;70.13;96273.84;6372644;27;20652;-70
2021/12/04 14:22:53;;;;;;;3.20;2.60;;;;;;;1.94;70.08;96267.28;6372594;27;20267;-67
2021/12/04 14:25:55;;;;;;;3.20;2.13;;;;;;;1.92;70.33;96267.38;6337032;27;20198;-67
2021/12/04 14:28:57;;;;;;;2.93;2.27;;;;;;;1.92;70.47;96272.59;6372543;27;20233;-68
2021/12/04 14:32:00;;;;;;;4.03;2.53;;;;;;;1.88;70.76;96281.56;6354270;27;20635;-67
2021/12/04 14:35:10;;;;;;;2.10;1.90;;;;;;;1.82;71.14;96282.78;6372370;27;20539;-69
2021/12/04 14:38:16;;;;;;;3.40;2.20;;;;;;;1.79;71.49;96274.38;6378501;27;20177;-68
2021/12/04 14:41:18;;;;;;;3.53;2.17;;;;;;;1.73;71.82;96260.00;6372573;27;20184;-68
2021/12/04 14:44:20;;;;;;;3.40;2.70;;;;;;;1.68;71.96;96262.09;6372547;27;20193;-70
2021/12/04 14:47:27;;;;;;;2.97;2.33;;;;;;;1.65;72.00;96270.09;6354039;27;20695;-68
2021/12/04 14:50:30;;;;;;;2.73;2.30;;;;;;;1.62;72.07;96269.47;6372371;27;20192;-68
2021/12/04 14:53:36;;;;;;;3.20;2.30;;;;;;;1.58;72.59;96263.66;6336418;27;20196;-69
2021/12/04 14:56:38;;;;;;;2.10;1.83;;;;;;;1.58;72.06;96274.06;6372165;27;20326;-67
2021/12/04 14:59:40;;;;;;;2.50;1.97;;;;;;;1.56;72.53;96267.28;6372684;27;21165;-68
2021/12/04 15:02:56;;;;;;;3.37;2.27;;;;;;;1.53;72.51;96262.28;6353185;27;20192;-67
2021/12/04 15:05:59;;;;;;;3.83;2.10;;;;;;;1.47;72.58;96261.78;6372482;27;20189;-67
2021/12/04 15:09:14;;;;;;;2.47;1.87;;;;;;;1.44;72.82;96263.75;6369096;27;20575;-67
2021/12/04 15:12:32;;;;;;;2.27;1.97;;;;;;;1.44;72.75;96276.75;6352481;27;20599;-67
2021/12/04 15:15:36;;;;;;;3.17;2.10;;;;;;;1.42;72.83;96266.44;6371633;27;20180;-68
2021/12/04 15:18:41;;;;;;;2.70;2.07;;;;;;;1.38;73.18;96266.75;6372274;27;20177;-68
2021/12/04 15:22:03;;;;;;;2.23;2.03;;;;;;;1.32;72.81;96273.19;6346364;28;20184;-69
2021/12/04 15:25:10;;;;;;;3.23;2.30;;;;;;;1.28;73.25;96268.31;6368815;27;20792;-68
2021/12/04 15:28:14;;;;;;;2.67;2.00;;;;;;;1.22;73.28;96269.53;6371253;27;20235;-67
2021/12/04 15:31:20;;;;;;;2.73;1.90;;;;;;;1.19;73.87;96274.94;6352831;27;20269;-68
2021/12/04 15:34:35;;;;;;;3.37;2.13;;;;;;;1.17;73.65;96269.00;6353251;27;20565;-69
2021/12/04 15:37:47;;;;;;;2.10;1.90;;;;;;;1.15;73.64;96268.28;6359419;27;20610;-69
2021/12/04 15:41:02;;;;;;;2.83;2.00;;;;;;;1.11;74.13;96275.41;6385190;27;20192;-67
2021/12/04 15:44:21;;;;;;;2.83;1.90;;;;;;;1.09;74.26;96273.88;6352685;27;20196;-70
2021/12/04 15:51:26;;;;;;;3.03;2.10;;;;;;;1.09;74.18;96279.91;6335999;27;20201;-69
2021/12/04 15:54:27;;;;;;;2.20;1.77;;;;;;;1.03;74.17;96280.28;6351834;27;20185;-69
2021/12/04 15:57:59;;;;;;;2.30;1.90;;;;;;;1.00;74.48;96283.06;6370487;27;20222;-69
2021/12/04 16:01:09;;;;;;;3.70;1.83;;;;;;;0.98;73.87;96287.56;6352289;27;20570;-70
2021/12/04 16:04:27;;;;;;;2.47;1.50;;;;;;;0.99;73.80;96291.00;6352467;27;20180;-70
2021/12/04 16:07:32;;;;;;;2.93;2.07;;;;;;;0.97;73.52;96296.28;6373328;27;20555;-69
2021/12/04 16:10:39;;;;;;;3.47;1.80;;;;;;;0.92;74.29;96293.13;6352069;27;20916;-72
2021/12/04 16:14:03;;;;;;;3.13;2.03;;;;;;;0.89;74.22;96297.72;6370709;27;20240;-70
2021/12/04 16:17:07;;;;;;;2.80;1.90;;;;;;;0.88;73.75;96293.44;6351930;27;20200;-69
2021/12/04 16:20:13;;;;;;;2.17;1.90;;;;;;;0.84;74.26;96281.56;6352384;27;20288;-69
2021/12/04 16:23:16;;;;;;;2.20;1.53;;;;;;;0.83;73.67;96293.72;6351955;27;20199;-69
2021/12/04 16:26:20;;;;;;;1.97;1.53;;;;;;;0.82;73.95;96283.44;6350479;27;20192;-70
2021/12/04 16:29:24;;;;;;;2.13;1.93;;;;;;;0.81;74.33;96286.94;6370014;27;20236;-69
2021/12/04 16:38:35;;;;;;;1.70;1.40;;;;;;;0.73;74.88;96283.09;6382094;27;20200;-69
2021/12/04 16:41:42;;;;;;;2.10;1.80;;;;;;;0.75;74.50;96285.59;6369457;27;20188;-70
2021/12/04 16:44:45;;;;;;;3.50;1.57;;;;;;;0.75;74.42;96283.00;6344514;28;20190;-70
2021/12/04 16:47:51;;;;;;;2.03;1.80;;;;;;;0.76;74.34;96283.84;6338657;28;20215;-70
2021/12/04 16:57:35;;;;;;;3.33;2.30;;;;;;;0.76;74.90;96286.44;6360451;27;20185;-69
2021/12/04 17:00:39;;;;;;;2.90;2.07;;;;;;;0.74;74.24;96283.94;6351030;27;20302;-69
2021/12/04 17:03:42;;;;;;;3.43;2.30;;;;;;;0.74;74.56;96283.94;6369210;27;20553;-70
2021/12/04 17:06:46;;;;;;;3.73;2.40;;;;;;;0.76;74.44;96287.25;6351058;27;20192;-69
2021/12/04 17:09:49;;;;;;;2.77;2.00;;;;;;;0.79;74.75;96286.25;6391204;27;20287;-69
2021/12/04 17:12:51;;;;;;;2.90;2.13;;;;;;;0.78;74.32;96280.22;6368965;27;20307;-69
2021/12/04 17:15:54;;;;;;;3.83;2.23;;;;;;;0.80;74.79;96287.91;6350289;27;20742;-69
2021/12/04 17:19:04;;;;;;;3.70;2.30;;;;;;;0.80;74.83;96280.13;6369076;27;20192;-68
2021/12/04 17:22:07;;;;;;;3.83;2.90;;;;;;;0.80;74.67;96282.72;6350449;27;20220;-70
2021/12/04 17:25:09;;;;;;;3.97;2.50;;;;;;;0.80;74.82;96282.72;6369071;28;20751;-69
2021/12/04 17:28:13;;;;;;;3.27;2.50;;;;;;;0.79;74.59;96289.69;6350488;28;20215;-68
2021/12/04 17:31:20;;;;;;;2.60;2.40;;;;;;;0.77;74.91;96281.16;6333419;28;20196;-69
2021/12/04 17:34:23;;;;;;;4.73;2.60;;;;;;;0.77;74.58;96290.69;6369034;28;20310;-70
2021/12/04 17:37:28;;;;;;;3.40;2.70;;;;;;;0.76;74.96;96286.44;6372976;27;20671;-69
2021/12/04 17:40:34;;;;;;;5.07;2.70;;;;;;;0.70;74.76;96292.81;6356108;27;20188;-68
2021/12/04 17:43:36;;;;;;;4.30;2.90;;;;;;;0.66;75.20;96284.41;6355615;27;20189;-72
2021/12/04 17:46:38;;;;;;;5.53;2.53;;;;;;;0.66;75.56;96279.22;6373875;27;20280;-69
2021/12/04 17:49:40;;;;;;;6.93;4.70;;;;;;;0.65;74.66;96281.91;6355503;27;20204;-68
2021/12/04 17:52:43;;;;;;;6.83;4.40;;;;;;;0.67;73.37;96283.50;6373870;27;20602;-69
2021/12/04 17:55:45;;;;;;;7.77;4.70;;;;;;;0.68;72.72;96274.78;6373281;27;20751;-68
2021/12/04 17:58:48;;;;;;;6.47;4.30;;;;;;;0.67;73.18;96270.50;6374067;27;20261;-69
2021/12/04 18:02:08;;;;;;;6.87;4.03;;;;;;;0.68;72.50;96263.56;6373473;27;20317;-68